sensor_id;sensor_type;location;lat;lon;timestamp;P1;durP1;ratioP1;P2;durP2;ratioP2
60973;SDS011;46846;51.528;5.076;2022-12-19T00:01:09;39.00;;;35.83;;
60973;SDS011;46846;51.528;5.076;2022-12-19T00:04:02;36.38;;;33.47;;
60973;SDS011;46846;51.528;5.076;2022-12-19T00:06:29;42.92;;;39.05;;
60973;SDS011;46846;51.528;5.076;2022-12-19T00:08:55;41.38;;;37.85;;
60973;SDS011;46846;51.528;5.076;2022-12-19T00:11:23;39.25;;;35.75;;
60973;SDS011;46846;51.528;5.076;2022-12-19T00:13:48;43.90;;;39.65;;
60973;SDS011;46846;51.528;5.076;2022-12-19T00:16:15;37.80;;;34.95;;
60973;SDS011;46846;51.528;5.076;2022-12-19T00:18:45;40.13;;;37.22;;
60973;SDS011;46846;51.528;5.076;2022-12-19T00:23:38;35.00;;;32.42;;
60973;SDS011;46846;51.528;5.076;2022-12-19T00:28:36;37.92;;;34.95;;
60973;SDS011;46846;51.528;5.076;2022-12-19T00:31:02;36.00;;;33.33;;
60973;SDS011;46846;51.528;5.076;2022-12-19T00:33:29;38.38;;;35.10;;
60973;SDS011;46846;51.528;5.076;2022-12-19T00:35:58;44.95;;;40.28;;
60973;SDS011;46846;51.528;5.076;2022-12-19T00:38:25;42.55;;;39.05;;
60973;SDS011;46846;51.528;5.076;2022-12-19T00:40:51;39.72;;;36.20;;
60973;SDS011;46846;51.528;5.076;2022-12-19T00:43:16;38.08;;;34.80;;
60973;SDS011;46846;51.528;5.076;2022-12-19T00:45:42;50.70;;;36.97;;
60973;SDS011;46846;51.528;5.076;2022-12-19T00:48:07;41.87;;;38.63;;
60973;SDS011;46846;51.528;5.076;2022-12-19T00:50:33;39.20;;;36.10;;
60973;SDS011;46846;51.528;5.076;2022-12-19T00:52:59;39.28;;;36.08;;
60973;SDS011;46846;51.528;5.076;2022-12-19T00:55:25;37.37;;;34.83;;
60973;SDS011;46846;51.528;5.076;2022-12-19T00:57:50;36.67;;;33.57;;
60973;SDS011;46846;51.528;5.076;2022-12-19T01:00:16;41.00;;;36.77;;
60973;SDS011;46846;51.528;5.076;2022-12-19T01:02:41;39.45;;;36.33;;
60973;SDS011;46846;51.528;5.076;2022-12-19T01:05:07;44.22;;;39.53;;
60973;SDS011;46846;51.528;5.076;2022-12-19T01:07:33;40.78;;;37.40;;
60973;SDS011;46846;51.528;5.076;2022-12-19T01:09:59;43.35;;;39.45;;
60973;SDS011;46846;51.528;5.076;2022-12-19T01:12:24;44.10;;;40.00;;
60973;SDS011;46846;51.528;5.076;2022-12-19T01:15:08;37.85;;;35.10;;
60973;SDS011;46846;51.528;5.076;2022-12-19T01:17:34;39.80;;;36.75;;
60973;SDS011;46846;51.528;5.076;2022-12-19T01:19:59;42.42;;;38.85;;
60973;SDS011;46846;51.528;5.076;2022-12-19T01:22:25;45.00;;;41.17;;
60973;SDS011;46846;51.528;5.076;2022-12-19T01:24:50;50.50;;;38.73;;
60973;SDS011;46846;51.528;5.076;2022-12-19T01:27:15;39.17;;;36.07;;
60973;SDS011;46846;51.528;5.076;2022-12-19T01:29:41;37.67;;;34.87;;
60973;SDS011;46846;51.528;5.076;2022-12-19T01:32:06;39.20;;;36.40;;
60973;SDS011;46846;51.528;5.076;2022-12-19T01:34:31;39.03;;;35.87;;
60973;SDS011;46846;51.528;5.076;2022-12-19T01:36:57;38.47;;;35.17;;
60973;SDS011;46846;51.528;5.076;2022-12-19T01:39:22;37.63;;;34.47;;
60973;SDS011;46846;51.528;5.076;2022-12-19T01:41:47;44.47;;;39.77;;
60973;SDS011;46846;51.528;5.076;2022-12-19T01:44:13;39.73;;;36.53;;
60973;SDS011;46846;51.528;5.076;2022-12-19T01:46:39;39.85;;;36.53;;
60973;SDS011;46846;51.528;5.076;2022-12-19T01:51:50;42.63;;;39.33;;
60973;SDS011;46846;51.528;5.076;2022-12-19T01:54:21;41.70;;;38.80;;
60973;SDS011;46846;51.528;5.076;2022-12-19T01:56:51;38.55;;;35.53;;
60973;SDS011;46846;51.528;5.076;2022-12-19T01:59:19;41.85;;;37.92;;
60973;SDS011;46846;51.528;5.076;2022-12-19T02:01:52;42.80;;;39.47;;
60973;SDS011;46846;51.528;5.076;2022-12-19T02:04:24;40.40;;;37.30;;
60973;SDS011;46846;51.528;5.076;2022-12-19T02:06:54;37.05;;;34.55;;
60973;SDS011;46846;51.528;5.076;2022-12-19T02:09:21;42.47;;;39.03;;
60973;SDS011;46846;51.528;5.076;2022-12-19T02:11:48;37.42;;;33.78;;
60973;SDS011;46846;51.528;5.076;2022-12-19T02:14:13;43.65;;;40.45;;
60973;SDS011;46846;51.528;5.076;2022-12-19T02:16:48;42.38;;;39.42;;
60973;SDS011;46846;51.528;5.076;2022-12-19T02:30:13;40.58;;;37.25;;
60973;SDS011;46846;51.528;5.076;2022-12-19T02:35:38;42.00;;;39.05;;
60973;SDS011;46846;51.528;5.076;2022-12-19T02:38:14;42.90;;;39.20;;
60973;SDS011;46846;51.528;5.076;2022-12-19T02:43:38;39.97;;;36.83;;
60973;SDS011;46846;51.528;5.076;2022-12-19T02:46:07;40.95;;;37.63;;
60973;SDS011;46846;51.528;5.076;2022-12-19T02:50:59;40.00;;;36.58;;
60973;SDS011;46846;51.528;5.076;2022-12-19T02:53:25;45.60;;;41.73;;
60973;SDS011;46846;51.528;5.076;2022-12-19T03:04:13;43.97;;;40.00;;
60973;SDS011;46846;51.528;5.076;2022-12-19T03:06:54;40.20;;;37.28;;
60973;SDS011;46846;51.528;5.076;2022-12-19T03:12:11;40.92;;;37.58;;
60973;SDS011;46846;51.528;5.076;2022-12-19T03:14:44;38.70;;;36.08;;
60973;SDS011;46846;51.528;5.076;2022-12-19T03:17:11;41.90;;;38.80;;
60973;SDS011;46846;51.528;5.076;2022-12-19T03:19:37;42.47;;;39.10;;
60973;SDS011;46846;51.528;5.076;2022-12-19T03:22:03;41.80;;;38.78;;
60973;SDS011;46846;51.528;5.076;2022-12-19T03:24:29;41.58;;;38.53;;
60973;SDS011;46846;51.528;5.076;2022-12-19T03:29:21;38.43;;;35.80;;
60973;SDS011;46846;51.528;5.076;2022-12-19T03:31:53;38.42;;;35.92;;
60973;SDS011;46846;51.528;5.076;2022-12-19T03:34:22;40.95;;;37.65;;
60973;SDS011;46846;51.528;5.076;2022-12-19T03:37:01;43.17;;;40.08;;
60973;SDS011;46846;51.528;5.076;2022-12-19T03:39:28;42.65;;;39.58;;
60973;SDS011;46846;51.528;5.076;2022-12-19T03:41:55;38.38;;;35.47;;
60973;SDS011;46846;51.528;5.076;2022-12-19T03:44:42;43.92;;;40.60;;
60973;SDS011;46846;51.528;5.076;2022-12-19T03:49:39;41.25;;;38.33;;
60973;SDS011;46846;51.528;5.076;2022-12-19T03:52:16;41.17;;;38.33;;
60973;SDS011;46846;51.528;5.076;2022-12-19T03:55:05;39.33;;;36.53;;
60973;SDS011;46846;51.528;5.076;2022-12-19T03:57:56;42.40;;;39.22;;
60973;SDS011;46846;51.528;5.076;2022-12-19T04:00:26;39.15;;;36.47;;
60973;SDS011;46846;51.528;5.076;2022-12-19T04:02:54;39.38;;;36.60;;
60973;SDS011;46846;51.528;5.076;2022-12-19T04:05:25;39.63;;;36.80;;
60973;SDS011;46846;51.528;5.076;2022-12-19T04:07:53;39.47;;;36.65;;
60973;SDS011;46846;51.528;5.076;2022-12-19T04:10:23;44.10;;;41.08;;
60973;SDS011;46846;51.528;5.076;2022-12-19T04:12:51;40.38;;;37.42;;
60973;SDS011;46846;51.528;5.076;2022-12-19T04:15:33;43.00;;;39.65;;
60973;SDS011;46846;51.528;5.076;2022-12-19T04:18:24;42.42;;;39.72;;
60973;SDS011;46846;51.528;5.076;2022-12-19T04:20:52;40.70;;;37.78;;
60973;SDS011;46846;51.528;5.076;2022-12-19T04:23:25;41.35;;;38.67;;
60973;SDS011;46846;51.528;5.076;2022-12-19T04:26:02;44.53;;;41.30;;
60973;SDS011;46846;51.528;5.076;2022-12-19T04:28:37;37.55;;;35.00;;
60973;SDS011;46846;51.528;5.076;2022-12-19T04:31:10;37.38;;;34.83;;
60973;SDS011;46846;51.528;5.076;2022-12-19T04:33:37;39.90;;;37.30;;
60973;SDS011;46846;51.528;5.076;2022-12-19T04:36:02;41.80;;;39.03;;
60973;SDS011;46846;51.528;5.076;2022-12-19T04:38:28;40.65;;;37.83;;
60973;SDS011;46846;51.528;5.076;2022-12-19T04:40:53;42.03;;;38.87;;
60973;SDS011;46846;51.528;5.076;2022-12-19T04:43:19;40.07;;;37.37;;
60973;SDS011;46846;51.528;5.076;2022-12-19T04:45:44;41.80;;;39.00;;
60973;SDS011;46846;51.528;5.076;2022-12-19T04:48:10;41.58;;;38.85;;
60973;SDS011;46846;51.528;5.076;2022-12-19T04:50:35;41.80;;;39.03;;
60973;SDS011;46846;51.528;5.076;2022-12-19T04:53:00;40.53;;;37.27;;
60973;SDS011;46846;51.528;5.076;2022-12-19T04:55:26;39.50;;;37.10;;
60973;SDS011;46846;51.528;5.076;2022-12-19T04:57:51;42.73;;;39.63;;
60973;SDS011;46846;51.528;5.076;2022-12-19T05:00:17;42.28;;;39.47;;
60973;SDS011;46846;51.528;5.076;2022-12-19T05:02:42;42.90;;;39.88;;
60973;SDS011;46846;51.528;5.076;2022-12-19T05:05:08;37.55;;;35.22;;
60973;SDS011;46846;51.528;5.076;2022-12-19T05:07:34;38.15;;;35.70;;
60973;SDS011;46846;51.528;5.076;2022-12-19T05:09:59;42.08;;;39.45;;
60973;SDS011;46846;51.528;5.076;2022-12-19T05:12:24;42.53;;;39.47;;
60973;SDS011;46846;51.528;5.076;2022-12-19T05:14:50;41.17;;;38.42;;
60973;SDS011;46846;51.528;5.076;2022-12-19T05:17:15;42.87;;;40.07;;
60973;SDS011;46846;51.528;5.076;2022-12-19T05:19:41;41.83;;;39.03;;
60973;SDS011;46846;51.528;5.076;2022-12-19T05:22:06;43.03;;;40.13;;
60973;SDS011;46846;51.528;5.076;2022-12-19T05:24:31;38.27;;;35.57;;
60973;SDS011;46846;51.528;5.076;2022-12-19T05:26:57;39.03;;;36.50;;
60973;SDS011;46846;51.528;5.076;2022-12-19T05:29:22;43.87;;;40.80;;
60973;SDS011;46846;51.528;5.076;2022-12-19T05:31:47;44.60;;;41.70;;
60973;SDS011;46846;51.528;5.076;2022-12-19T05:34:13;45.30;;;42.10;;
60973;SDS011;46846;51.528;5.076;2022-12-19T05:36:38;41.87;;;39.27;;
60973;SDS011;46846;51.528;5.076;2022-12-19T05:39:04;42.90;;;40.17;;
60973;SDS011;46846;51.528;5.076;2022-12-19T05:41:29;42.57;;;39.63;;
60973;SDS011;46846;51.528;5.076;2022-12-19T05:43:54;45.37;;;42.13;;
60973;SDS011;46846;51.528;5.076;2022-12-19T05:46:21;45.00;;;41.78;;
60973;SDS011;46846;51.528;5.076;2022-12-19T05:48:47;42.22;;;38.97;;
60973;SDS011;46846;51.528;5.076;2022-12-19T05:51:13;43.95;;;41.10;;
60973;SDS011;46846;51.528;5.076;2022-12-19T05:53:39;45.97;;;42.67;;
60973;SDS011;46846;51.528;5.076;2022-12-19T05:56:06;43.17;;;39.97;;
60973;SDS011;46846;51.528;5.076;2022-12-19T05:58:31;43.75;;;40.83;;
60973;SDS011;46846;51.528;5.076;2022-12-19T06:01:01;41.03;;;38.50;;
60973;SDS011;46846;51.528;5.076;2022-12-19T06:03:31;41.33;;;38.67;;
60973;SDS011;46846;51.528;5.076;2022-12-19T06:05:58;45.57;;;42.33;;
60973;SDS011;46846;51.528;5.076;2022-12-19T06:08:26;41.95;;;39.30;;
60973;SDS011;46846;51.528;5.076;2022-12-19T06:10:52;47.23;;;44.13;;
60973;SDS011;46846;51.528;5.076;2022-12-19T06:13:17;43.40;;;40.60;;
60973;SDS011;46846;51.528;5.076;2022-12-19T06:15:42;46.43;;;43.00;;
60973;SDS011;46846;51.528;5.076;2022-12-19T06:18:08;40.87;;;38.30;;
60973;SDS011;46846;51.528;5.076;2022-12-19T06:20:33;44.57;;;41.63;;
60973;SDS011;46846;51.528;5.076;2022-12-19T06:22:58;47.40;;;44.15;;
60973;SDS011;46846;51.528;5.076;2022-12-19T06:25:24;44.73;;;41.73;;
60973;SDS011;46846;51.528;5.076;2022-12-19T06:27:49;42.70;;;39.83;;
60973;SDS011;46846;51.528;5.076;2022-12-19T06:30:14;45.80;;;42.37;;
60973;SDS011;46846;51.528;5.076;2022-12-19T06:32:40;42.67;;;39.67;;
60973;SDS011;46846;51.528;5.076;2022-12-19T06:35:05;42.13;;;39.13;;
60973;SDS011;46846;51.528;5.076;2022-12-19T06:37:31;45.33;;;42.22;;
60973;SDS011;46846;51.528;5.076;2022-12-19T06:39:57;46.10;;;43.00;;
60973;SDS011;46846;51.528;5.076;2022-12-19T06:42:22;43.47;;;40.20;;
60973;SDS011;46846;51.528;5.076;2022-12-19T06:44:48;50.53;;;46.70;;
60973;SDS011;46846;51.528;5.076;2022-12-19T06:47:17;44.33;;;41.40;;
60973;SDS011;46846;51.528;5.076;2022-12-19T06:49:43;45.90;;;42.63;;
60973;SDS011;46846;51.528;5.076;2022-12-19T06:52:08;44.73;;;42.03;;
60973;SDS011;46846;51.528;5.076;2022-12-19T06:54:33;45.30;;;42.10;;
60973;SDS011;46846;51.528;5.076;2022-12-19T06:56:59;44.30;;;40.97;;
60973;SDS011;46846;51.528;5.076;2022-12-19T06:59:25;41.30;;;38.63;;
60973;SDS011;46846;51.528;5.076;2022-12-19T07:04:48;40.47;;;37.92;;
60973;SDS011;46846;51.528;5.076;2022-12-19T07:07:16;42.85;;;40.25;;
60973;SDS011;46846;51.528;5.076;2022-12-19T07:09:42;43.43;;;40.47;;
60973;SDS011;46846;51.528;5.076;2022-12-19T07:12:07;43.57;;;40.70;;
60973;SDS011;46846;51.528;5.076;2022-12-19T07:14:33;44.65;;;41.83;;
60973;SDS011;46846;51.528;5.076;2022-12-19T07:16:58;44.35;;;41.55;;
60973;SDS011;46846;51.528;5.076;2022-12-19T07:19:25;43.03;;;40.30;;
60973;SDS011;46846;51.528;5.076;2022-12-19T07:21:52;45.58;;;42.65;;
60973;SDS011;46846;51.528;5.076;2022-12-19T07:24:18;43.58;;;40.75;;
60973;SDS011;46846;51.528;5.076;2022-12-19T07:26:44;49.00;;;45.67;;
60973;SDS011;46846;51.528;5.076;2022-12-19T07:29:09;43.25;;;40.55;;
60973;SDS011;46846;51.528;5.076;2022-12-19T07:34:01;40.90;;;38.08;;
60973;SDS011;46846;51.528;5.076;2022-12-19T07:36:26;43.03;;;39.93;;
60973;SDS011;46846;51.528;5.076;2022-12-19T07:38:52;45.30;;;42.40;;
60973;SDS011;46846;51.528;5.076;2022-12-19T07:41:17;45.13;;;42.43;;
60973;SDS011;46846;51.528;5.076;2022-12-19T07:43:43;45.80;;;42.92;;
60973;SDS011;46846;51.528;5.076;2022-12-19T07:46:09;47.15;;;44.17;;
60973;SDS011;46846;51.528;5.076;2022-12-19T07:48:35;45.08;;;42.17;;
60973;SDS011;46846;51.528;5.076;2022-12-19T07:51:00;41.73;;;39.10;;
60973;SDS011;46846;51.528;5.076;2022-12-19T07:53:29;40.97;;;38.38;;
60973;SDS011;46846;51.528;5.076;2022-12-19T07:55:55;44.53;;;41.58;;
60973;SDS011;46846;51.528;5.076;2022-12-19T07:58:20;44.80;;;41.47;;
60973;SDS011;46846;51.528;5.076;2022-12-19T08:00:52;49.28;;;46.05;;
60973;SDS011;46846;51.528;5.076;2022-12-19T08:03:19;48.53;;;45.42;;
60973;SDS011;46846;51.528;5.076;2022-12-19T08:05:44;42.17;;;39.67;;
60973;SDS011;46846;51.528;5.076;2022-12-19T08:08:09;44.30;;;41.40;;
60973;SDS011;46846;51.528;5.076;2022-12-19T08:10:34;41.93;;;39.40;;
60973;SDS011;46846;51.528;5.076;2022-12-19T08:13:00;46.80;;;43.80;;
60973;SDS011;46846;51.528;5.076;2022-12-19T08:15:25;45.50;;;42.50;;
60973;SDS011;46846;51.528;5.076;2022-12-19T08:17:53;46.90;;;43.60;;
60973;SDS011;46846;51.528;5.076;2022-12-19T08:20:18;47.33;;;44.33;;
60973;SDS011;46846;51.528;5.076;2022-12-19T08:22:43;48.03;;;44.83;;
60973;SDS011;46846;51.528;5.076;2022-12-19T08:25:09;48.65;;;45.45;;
60973;SDS011;46846;51.528;5.076;2022-12-19T08:27:34;47.03;;;44.15;;
60973;SDS011;46846;51.528;5.076;2022-12-19T08:30:00;45.57;;;42.63;;
60973;SDS011;46846;51.528;5.076;2022-12-19T08:32:25;49.80;;;46.53;;
60973;SDS011;46846;51.528;5.076;2022-12-19T08:34:50;43.83;;;41.20;;
60973;SDS011;46846;51.528;5.076;2022-12-19T08:37:16;45.30;;;42.33;;
60973;SDS011;46846;51.528;5.076;2022-12-19T08:39:41;44.55;;;41.83;;
60973;SDS011;46846;51.528;5.076;2022-12-19T08:42:07;47.37;;;44.57;;
60973;SDS011;46846;51.528;5.076;2022-12-19T08:44:32;44.17;;;41.53;;
60973;SDS011;46846;51.528;5.076;2022-12-19T08:46:58;44.23;;;41.13;;
60973;SDS011;46846;51.528;5.076;2022-12-19T08:49:26;44.42;;;41.22;;
60973;SDS011;46846;51.528;5.076;2022-12-19T08:51:51;45.80;;;42.43;;
60973;SDS011;46846;51.528;5.076;2022-12-19T08:54:16;48.37;;;45.33;;
60973;SDS011;46846;51.528;5.076;2022-12-19T08:56:42;45.30;;;42.53;;
60973;SDS011;46846;51.528;5.076;2022-12-19T08:59:07;47.70;;;44.50;;
60973;SDS011;46846;51.528;5.076;2022-12-19T09:01:33;46.43;;;43.57;;
60973;SDS011;46846;51.528;5.076;2022-12-19T09:03:58;44.63;;;41.78;;
60973;SDS011;46846;51.528;5.076;2022-12-19T09:06:24;47.03;;;44.15;;
60973;SDS011;46846;51.528;5.076;2022-12-19T09:08:50;43.00;;;40.28;;
60973;SDS011;46846;51.528;5.076;2022-12-19T09:11:16;46.28;;;43.38;;
60973;SDS011;46846;51.528;5.076;2022-12-19T09:13:44;48.70;;;45.70;;
60973;SDS011;46846;51.528;5.076;2022-12-19T09:16:15;45.25;;;42.53;;
60973;SDS011;46846;51.528;5.076;2022-12-19T09:18:43;47.85;;;44.80;;
60973;SDS011;46846;51.528;5.076;2022-12-19T09:21:09;50.28;;;47.08;;
60973;SDS011;46846;51.528;5.076;2022-12-19T09:23:35;52.85;;;49.55;;
60973;SDS011;46846;51.528;5.076;2022-12-19T09:26:05;51.78;;;48.30;;
60973;SDS011;46846;51.528;5.076;2022-12-19T09:28:33;51.90;;;48.55;;
60973;SDS011;46846;51.528;5.076;2022-12-19T09:31:03;50.92;;;47.65;;
60973;SDS011;46846;51.528;5.076;2022-12-19T09:33:30;50.42;;;47.13;;
60973;SDS011;46846;51.528;5.076;2022-12-19T09:35:58;47.10;;;44.28;;
60973;SDS011;46846;51.528;5.076;2022-12-19T09:38:24;46.50;;;43.60;;
60973;SDS011;46846;51.528;5.076;2022-12-19T09:40:57;49.40;;;46.20;;
60973;SDS011;46846;51.528;5.076;2022-12-19T09:49:25;48.42;;;45.40;;
60973;SDS011;46846;51.528;5.076;2022-12-19T09:52:04;45.25;;;42.42;;
60973;SDS011;46846;51.528;5.076;2022-12-19T09:54:50;50.58;;;47.47;;
60973;SDS011;46846;51.528;5.076;2022-12-19T10:00:21;49.13;;;45.45;;
60973;SDS011;46846;51.528;5.076;2022-12-19T10:02:58;51.22;;;48.03;;
60973;SDS011;46846;51.528;5.076;2022-12-19T10:05:42;47.10;;;44.10;;
60973;SDS011;46846;51.528;5.076;2022-12-19T10:08:16;45.88;;;42.75;;
60973;SDS011;46846;51.528;5.076;2022-12-19T10:16:47;48.33;;;45.42;;
60973;SDS011;46846;51.528;5.076;2022-12-19T10:31:07;45.33;;;42.50;;
60973;SDS011;46846;51.528;5.076;2022-12-19T10:33:44;49.75;;;46.72;;
60973;SDS011;46846;51.528;5.076;2022-12-19T10:36:17;49.92;;;46.95;;
60973;SDS011;46846;51.528;5.076;2022-12-19T10:44:01;48.33;;;45.28;;
60973;SDS011;46846;51.528;5.076;2022-12-19T10:49:10;45.28;;;42.40;;
60973;SDS011;46846;51.528;5.076;2022-12-19T10:57:17;46.05;;;43.28;;
60973;SDS011;46846;51.528;5.076;2022-12-19T11:02:34;49.20;;;46.30;;
60973;SDS011;46846;51.528;5.076;2022-12-19T11:05:02;48.58;;;45.70;;
60973;SDS011;46846;51.528;5.076;2022-12-19T11:13:43;52.85;;;49.65;;
60973;SDS011;46846;51.528;5.076;2022-12-19T11:16:10;50.03;;;47.03;;
60973;SDS011;46846;51.528;5.076;2022-12-19T11:18:46;47.92;;;45.00;;
60973;SDS011;46846;51.528;5.076;2022-12-19T11:26:35;48.95;;;46.00;;
60973;SDS011;46846;51.528;5.076;2022-12-19T11:31:44;52.85;;;49.63;;
60973;SDS011;46846;51.528;5.076;2022-12-19T11:34:13;50.58;;;47.47;;
60973;SDS011;46846;51.528;5.076;2022-12-19T11:39:30;54.55;;;51.15;;
60973;SDS011;46846;51.528;5.076;2022-12-19T11:42:29;54.97;;;51.47;;
60973;SDS011;46846;51.528;5.076;2022-12-19T11:45:08;52.60;;;49.33;;
60973;SDS011;46846;51.528;5.076;2022-12-19T11:47:50;53.75;;;50.50;;
60973;SDS011;46846;51.528;5.076;2022-12-19T11:50:21;54.33;;;50.97;;
60973;SDS011;46846;51.528;5.076;2022-12-19T11:53:25;52.58;;;49.35;;
60973;SDS011;46846;51.528;5.076;2022-12-19T11:55:58;58.33;;;54.67;;
60973;SDS011;46846;51.528;5.076;2022-12-19T11:58:29;53.55;;;50.05;;
60973;SDS011;46846;51.528;5.076;2022-12-19T12:03:49;53.10;;;49.78;;
60973;SDS011;46846;51.528;5.076;2022-12-19T12:06:32;54.97;;;51.50;;
60973;SDS011;46846;51.528;5.076;2022-12-19T12:14:13;57.58;;;54.15;;
60973;SDS011;46846;51.528;5.076;2022-12-19T12:16:51;58.03;;;54.53;;
60973;SDS011;46846;51.528;5.076;2022-12-19T12:19:43;59.90;;;56.22;;
60973;SDS011;46846;51.528;5.076;2022-12-19T12:27:54;55.10;;;51.80;;
60973;SDS011;46846;51.528;5.076;2022-12-19T12:30:23;56.60;;;52.88;;
60973;SDS011;46846;51.528;5.076;2022-12-19T12:33:14;54.78;;;51.60;;
60973;SDS011;46846;51.528;5.076;2022-12-19T12:35:56;59.20;;;53.92;;
60973;SDS011;46846;51.528;5.076;2022-12-19T12:38:40;55.85;;;52.47;;
60973;SDS011;46846;51.528;5.076;2022-12-19T12:41:36;58.03;;;54.55;;
60973;SDS011;46846;51.528;5.076;2022-12-19T12:44:35;54.30;;;50.28;;
60973;SDS011;46846;51.528;5.076;2022-12-19T12:47:11;53.63;;;49.90;;
60973;SDS011;46846;51.528;5.076;2022-12-19T12:49:42;56.88;;;53.47;;
60973;SDS011;46846;51.528;5.076;2022-12-19T12:52:19;58.50;;;54.53;;
60973;SDS011;46846;51.528;5.076;2022-12-19T12:54:51;57.92;;;54.45;;
60973;SDS011;46846;51.528;5.076;2022-12-19T13:02:41;54.97;;;51.35;;
60973;SDS011;46846;51.528;5.076;2022-12-19T13:07:53;59.15;;;55.17;;
60973;SDS011;46846;51.528;5.076;2022-12-19T13:10:26;59.55;;;55.75;;
60973;SDS011;46846;51.528;5.076;2022-12-19T13:12:55;54.58;;;51.33;;
60973;SDS011;46846;51.528;5.076;2022-12-19T13:27:55;61.15;;;57.53;;
60973;SDS011;46846;51.528;5.076;2022-12-19T13:30:22;62.83;;;59.13;;
60973;SDS011;46846;51.528;5.076;2022-12-19T13:40:14;59.72;;;55.80;;
60973;SDS011;46846;51.528;5.076;2022-12-19T13:43:35;57.65;;;54.15;;
60973;SDS011;46846;51.528;5.076;2022-12-19T13:45:57;57.65;;;54.25;;
60973;SDS011;46846;51.528;5.076;2022-12-19T13:48:28;58.05;;;54.63;;
60973;SDS011;46846;51.528;5.076;2022-12-19T13:51:05;61.53;;;57.60;;
60973;SDS011;46846;51.528;5.076;2022-12-19T13:53:32;64.15;;;60.40;;
60973;SDS011;46846;51.528;5.076;2022-12-19T13:58:26;56.70;;;53.28;;
60973;SDS011;46846;51.528;5.076;2022-12-19T14:00:54;56.58;;;52.78;;
60973;SDS011;46846;51.528;5.076;2022-12-19T14:03:33;60.75;;;57.13;;
60973;SDS011;46846;51.528;5.076;2022-12-19T14:06:07;64.88;;;60.90;;
60973;SDS011;46846;51.528;5.076;2022-12-19T14:08:45;61.35;;;57.50;;
60973;SDS011;46846;51.528;5.076;2022-12-19T14:11:12;60.35;;;56.53;;
60973;SDS011;46846;51.528;5.076;2022-12-19T14:13:42;62.58;;;58.60;;
60973;SDS011;46846;51.528;5.076;2022-12-19T14:16:31;66.10;;;61.92;;
60973;SDS011;46846;51.528;5.076;2022-12-19T14:18:57;63.95;;;59.28;;
60973;SDS011;46846;51.528;5.076;2022-12-19T14:21:24;69.45;;;65.30;;
60973;SDS011;46846;51.528;5.076;2022-12-19T14:24:06;65.97;;;61.80;;
60973;SDS011;46846;51.528;5.076;2022-12-19T14:26:36;68.85;;;64.82;;
60973;SDS011;46846;51.528;5.076;2022-12-19T14:29:07;61.20;;;57.60;;
60973;SDS011;46846;51.528;5.076;2022-12-19T14:31:37;71.63;;;67.13;;
60973;SDS011;46846;51.528;5.076;2022-12-19T14:34:05;67.20;;;63.10;;
60973;SDS011;46846;51.528;5.076;2022-12-19T14:36:41;66.80;;;62.63;;
60973;SDS011;46846;51.528;5.076;2022-12-19T14:39:14;64.30;;;60.38;;
60973;SDS011;46846;51.528;5.076;2022-12-19T14:41:42;65.78;;;61.78;;
60973;SDS011;46846;51.528;5.076;2022-12-19T14:44:42;70.65;;;66.57;;
60973;SDS011;46846;51.528;5.076;2022-12-19T14:47:22;62.35;;;58.53;;
60973;SDS011;46846;51.528;5.076;2022-12-19T14:49:58;62.28;;;58.67;;
60973;SDS011;46846;51.528;5.076;2022-12-19T14:52:39;63.40;;;59.67;;
60973;SDS011;46846;51.528;5.076;2022-12-19T14:57:50;61.08;;;57.38;;
60973;SDS011;46846;51.528;5.076;2022-12-19T15:02:54;65.15;;;61.22;;
60973;SDS011;46846;51.528;5.076;2022-12-19T15:05:22;63.78;;;60.03;;
60973;SDS011;46846;51.528;5.076;2022-12-19T15:07:48;63.53;;;59.70;;
60973;SDS011;46846;51.528;5.076;2022-12-19T15:10:17;67.53;;;63.42;;
60973;SDS011;46846;51.528;5.076;2022-12-19T15:15:44;63.03;;;59.28;;
60973;SDS011;46846;51.528;5.076;2022-12-19T15:18:26;68.60;;;63.83;;
60973;SDS011;46846;51.528;5.076;2022-12-19T15:21:09;66.15;;;62.15;;
60973;SDS011;46846;51.528;5.076;2022-12-19T15:23:36;69.30;;;65.20;;
60973;SDS011;46846;51.528;5.076;2022-12-19T15:26:04;72.10;;;67.80;;
60973;SDS011;46846;51.528;5.076;2022-12-19T15:28:39;65.38;;;61.47;;
60973;SDS011;46846;51.528;5.076;2022-12-19T15:33:50;69.65;;;65.35;;
60973;SDS011;46846;51.528;5.076;2022-12-19T15:36:15;73.53;;;69.05;;
60973;SDS011;46846;51.528;5.076;2022-12-19T15:38:41;70.37;;;66.07;;
60973;SDS011;46846;51.528;5.076;2022-12-19T15:41:10;66.90;;;62.20;;
60973;SDS011;46846;51.528;5.076;2022-12-19T15:43:39;67.88;;;63.78;;
60973;SDS011;46846;51.528;5.076;2022-12-19T15:48:31;71.80;;;67.40;;
60973;SDS011;46846;51.528;5.076;2022-12-19T15:50:59;60.72;;;57.17;;
60973;SDS011;46846;51.528;5.076;2022-12-19T15:53:25;65.20;;;61.30;;
60973;SDS011;46846;51.528;5.076;2022-12-19T15:55:52;67.20;;;63.10;;
60973;SDS011;46846;51.528;5.076;2022-12-19T15:58:20;70.30;;;66.00;;
60973;SDS011;46846;51.528;5.076;2022-12-19T16:00:48;66.63;;;62.35;;
60973;SDS011;46846;51.528;5.076;2022-12-19T16:03:17;70.35;;;66.15;;
60973;SDS011;46846;51.528;5.076;2022-12-19T16:05:44;68.57;;;64.47;;
60973;SDS011;46846;51.528;5.076;2022-12-19T16:08:14;66.43;;;62.22;;
60973;SDS011;46846;51.528;5.076;2022-12-19T16:10:42;71.22;;;66.78;;
60973;SDS011;46846;51.528;5.076;2022-12-19T16:13:14;67.22;;;63.10;;
60973;SDS011;46846;51.528;5.076;2022-12-19T16:15:44;65.47;;;61.63;;
60973;SDS011;46846;51.528;5.076;2022-12-19T16:20:37;65.03;;;60.90;;
60973;SDS011;46846;51.528;5.076;2022-12-19T16:23:04;66.32;;;62.22;;
60973;SDS011;46846;51.528;5.076;2022-12-19T16:25:36;69.45;;;65.00;;
60973;SDS011;46846;51.528;5.076;2022-12-19T16:28:06;67.63;;;63.65;;
60973;SDS011;46846;51.528;5.076;2022-12-19T16:30:37;72.35;;;67.85;;
60973;SDS011;46846;51.528;5.076;2022-12-19T16:33:04;63.58;;;59.88;;
60973;SDS011;46846;51.528;5.076;2022-12-19T16:35:38;68.35;;;64.20;;
60973;SDS011;46846;51.528;5.076;2022-12-19T16:38:03;65.68;;;61.80;;
60973;SDS011;46846;51.528;5.076;2022-12-19T16:40:28;68.70;;;64.70;;
60973;SDS011;46846;51.528;5.076;2022-12-19T16:43:13;72.73;;;68.53;;
60973;SDS011;46846;51.528;5.076;2022-12-19T16:45:39;72.63;;;68.18;;
60973;SDS011;46846;51.528;5.076;2022-12-19T16:50:50;58.58;;;55.17;;
60973;SDS011;46846;51.528;5.076;2022-12-19T16:53:16;68.00;;;63.97;;
60973;SDS011;46846;51.528;5.076;2022-12-19T16:55:42;65.38;;;61.20;;
60973;SDS011;46846;51.528;5.076;2022-12-19T17:00:53;60.25;;;56.58;;
60973;SDS011;46846;51.528;5.076;2022-12-19T17:05:58;66.55;;;61.85;;
60973;SDS011;46846;51.528;5.076;2022-12-19T17:08:23;69.00;;;64.75;;
60973;SDS011;46846;51.528;5.076;2022-12-19T17:10:49;71.25;;;66.85;;
60973;SDS011;46846;51.528;5.076;2022-12-19T17:13:17;67.10;;;63.03;;
60973;SDS011;46846;51.528;5.076;2022-12-19T17:15:43;68.78;;;64.68;;
60973;SDS011;46846;51.528;5.076;2022-12-19T17:18:13;74.80;;;70.20;;
60973;SDS011;46846;51.528;5.076;2022-12-19T17:20:44;70.13;;;65.93;;
60973;SDS011;46846;51.528;5.076;2022-12-19T17:23:14;62.35;;;58.47;;
60973;SDS011;46846;51.528;5.076;2022-12-19T17:25:41;67.72;;;63.60;;
60973;SDS011;46846;51.528;5.076;2022-12-19T17:28:07;70.53;;;66.05;;
60973;SDS011;46846;51.528;5.076;2022-12-19T17:30:33;70.85;;;66.65;;